Time;durP1;ratioP1;P1;durP2;ratioP2;P2;SDS_P1;SDS_P2;PMS_P1;PMS_P2;Temp;Humidity;BMP_temperature;BMP_pressure;BME280_temperature;BME280_humidity;BME280_pressure;Samples;Min_cycle;Max_cycle;Signal;HPM_P1;HPM_P2
2022/01/08 00:00:58;;;;;;;11.88;9.68;;;2.60;99.90;;;;;;10211372;28;20045;-60
2022/01/08 00:06:00;;;;;;;8.10;3.83;;;2.50;99.90;;;;;;10186733;28;20049;-60
2022/01/08 00:11:02;;;;;;;7.95;3.58;;;2.40;99.90;;;;;;10338740;28;20069;-60
2022/01/08 00:16:04;;;;;;;8.10;3.47;;;2.30;99.90;;;;;;10351836;28;20127;-60
2022/01/08 00:21:05;;;;;;;6.13;3.08;;;2.20;99.90;;;;;;10348779;28;20096;-60
2022/01/08 00:26:07;;;;;;;7.80;3.53;;;2.00;99.90;;;;;;10351196;28;20068;-61
2022/01/08 00:31:10;;;;;;;9.60;3.40;;;1.90;99.90;;;;;;10346127;28;20095;-61
2022/01/08 00:36:11;;;;;;;7.20;3.75;;;1.70;99.90;;;;;;10348083;28;20049;-60
2022/01/08 00:41:13;;;;;;;7.88;3.08;;;1.50;99.90;;;;;;10351485;28;20096;-60
2022/01/08 00:46:15;;;;;;;7.43;2.85;;;1.40;99.90;;;;;;10349058;28;20073;-60
2022/01/08 00:51:17;;;;;;;10.82;3.88;;;1.30;99.90;;;;;;10348317;28;20046;-60
2022/01/08 00:56:18;;;;;;;7.30;3.15;;;1.30;99.90;;;;;;10348913;28;20050;-61
2022/01/08 01:01:20;;;;;;;10.85;3.92;;;1.30;99.90;;;;;;10347423;28;20508;-61
2022/01/08 01:06:22;;;;;;;11.82;4.30;;;1.30;99.90;;;;;;10346637;28;20041;-61
2022/01/08 01:11:24;;;;;;;11.68;4.35;;;1.20;99.90;;;;;;10344291;28;20096;-61
2022/01/08 01:16:26;;;;;;;9.80;3.85;;;1.20;99.90;;;;;;10357396;28;20865;-61
2022/01/08 01:21:28;;;;;;;8.88;3.55;;;1.20;99.90;;;;;;10342621;28;20112;-60
2022/01/08 01:26:30;;;;;;;10.68;3.92;;;1.20;99.90;;;;;;10344343;28;20108;-61
2022/01/08 01:42:40;;;;;;;11.88;3.42;;;1.10;99.90;;;;;;10341500;28;20050;-61
2022/01/08 01:47:35;;;;;;;8.98;3.85;;;1.20;99.90;;;;;;10343245;28;20050;-61
2022/01/08 01:52:38;;;;;;;8.75;2.92;;;1.10;99.90;;;;;;10342938;28;20076;-61
2022/01/08 01:57:40;;;;;;;9.35;3.30;;;1.10;99.90;;;;;;10340335;28;20120;-60
2022/01/08 02:02:41;;;;;;;11.88;4.07;;;1.10;99.90;;;;;;10342264;28;20137;-61
2022/01/08 02:07:43;;;;;;;13.50;4.70;;;1.10;99.90;;;;;;10313005;28;1025744;-61
2022/01/08 02:12:45;;;;;;;7.50;4.03;;;1.10;99.90;;;;;;10343288;28;20061;-61
2022/01/08 02:17:47;;;;;;;5.85;2.75;;;1.10;99.90;;;;;;10345977;28;20080;-61
2022/01/08 02:22:49;;;;;;;4.25;1.60;;;1.10;99.90;;;;;;10343808;28;20060;-62
2022/01/08 02:27:51;;;;;;;4.72;2.10;;;1.00;99.90;;;;;;10344853;28;20041;-62
2022/01/08 02:32:52;;;;;;;6.43;1.67;;;1.00;99.90;;;;;;10344781;28;20037;-61
2022/01/08 02:37:54;;;;;;;4.95;2.03;;;0.90;99.90;;;;;;10343609;28;20554;-61
2022/01/08 02:43:01;;;;;;;3.42;1.42;;;0.90;99.90;;;;;;10341096;28;20127;-62
2022/01/08 02:48:03;;;;;;;2.60;1.00;;;0.90;99.90;;;;;;10344212;28;20136;-62
2022/01/08 02:53:04;;;;;;;1.85;0.77;;;0.80;99.90;;;;;;10344596;28;20054;-60
2022/01/08 02:58:06;;;;;;;6.53;0.73;;;0.80;99.90;;;;;;10340665;28;20543;-61
2022/01/08 03:03:08;;;;;;;2.55;0.50;;;0.80;99.90;;;;;;10339501;28;20092;-61
2022/01/08 03:08:10;;;;;;;1.55;0.70;;;0.80;99.90;;;;;;10340794;28;20041;-62
2022/01/08 03:13:12;;;;;;;6.20;0.70;;;0.80;99.90;;;;;;10342968;28;20050;-62
2022/01/08 03:18:13;;;;;;;2.28;0.70;;;0.80;99.90;;;;;;10343937;28;20073;-63
2022/01/08 03:23:17;;;;;;;2.10;0.60;;;0.80;99.90;;;;;;10341952;28;20509;-63
2022/01/08 03:28:19;;;;;;;1.08;0.57;;;0.80;99.90;;;;;;10342543;28;20127;-64
2022/01/08 03:33:24;;;;;;;1.42;0.50;;;0.80;99.90;;;;;;10341119;28;20128;-65
2022/01/08 03:38:26;;;;;;;0.80;0.50;;;0.90;99.90;;;;;;10342721;28;20464;-65
2022/01/08 03:43:28;;;;;;;1.17;0.40;;;0.80;99.90;;;;;;10341059;28;20115;-64
2022/01/08 03:48:43;;;;;;;0.68;0.30;;;0.80;99.90;;;;;;10343715;28;20050;-64
2022/01/08 03:53:44;;;;;;;0.43;0.20;;;0.80;99.90;;;;;;10338213;28;20045;-65
2022/01/08 03:58:46;;;;;;;0.20;0.17;;;0.90;99.90;;;;;;10342006;28;20073;-66
2022/01/08 04:03:48;;;;;;;2.55;0.20;;;0.90;99.90;;;;;;10341045;28;20057;-65
2022/01/08 04:08:56;;;;;;;0.40;0.20;;;0.90;99.90;;;;;;10341289;28;20057;-65
2022/01/08 04:13:58;;;;;;;0.57;0.28;;;0.90;99.90;;;;;;10336651;28;20127;-64
2022/01/08 04:18:59;;;;;;;0.55;0.20;;;0.90;99.90;;;;;;10340047;28;20085;-64
2022/01/08 04:24:05;;;;;;;0.85;0.32;;;0.90;99.90;;;;;;10338944;28;20131;-63
2022/01/08 04:29:07;;;;;;;1.00;0.40;;;0.90;99.90;;;;;;10342981;28;20144;-64
2022/01/08 04:34:09;;;;;;;0.47;0.35;;;1.00;99.90;;;;;;10341693;28;20077;-64
2022/01/08 04:39:11;;;;;;;0.73;0.30;;;0.90;99.90;;;;;;10337052;28;20046;-64
2022/01/08 04:44:12;;;;;;;0.93;0.40;;;0.90;99.90;;;;;;10344297;28;20058;-65
2022/01/08 04:49:14;;;;;;;0.80;0.35;;;0.90;99.90;;;;;;10347318;28;20082;-65
2022/01/08 04:54:16;;;;;;;0.30;0.20;;;0.90;99.90;;;;;;10335586;28;20508;-65
2022/01/08 04:59:18;;;;;;;0.30;0.20;;;0.90;99.90;;;;;;10349156;28;20108;-65
2022/01/08 05:04:21;;;;;;;0.30;0.13;;;0.90;99.90;;;;;;10351262;28;20130;-65
2022/01/08 05:09:22;;;;;;;0.38;0.10;;;0.90;99.90;;;;;;10349845;28;20054;-65
2022/01/08 05:14:26;;;;;;;1.65;0.10;;;1.00;99.90;;;;;;10348850;28;20112;-65
2022/01/08 05:19:42;;;;;;;0.08;0.00;;;1.00;99.90;;;;;;10352601;28;20393;-67
2022/01/08 05:24:44;;;;;;;0.03;0.03;;;1.10;99.90;;;;;;10344752;28;20141;-66
2022/01/08 05:29:50;;;;;;;0.30;0.10;;;1.10;99.90;;;;;;10345427;28;20491;-66
2022/01/08 05:34:52;;;;;;;1.48;0.10;;;1.10;99.90;;;;;;10350862;28;20080;-65
2022/01/08 05:39:54;;;;;;;2.53;0.10;;;1.10;99.90;;;;;;10349382;28;20385;-66
2022/01/08 05:44:55;;;;;;;0.20;0.05;;;1.10;99.90;;;;;;10345441;28;21263;-66
2022/01/08 05:49:57;;;;;;;0.20;0.10;;;1.10;99.90;;;;;;10347690;28;20041;-65
2022/01/08 05:54:59;;;;;;;4.28;0.10;;;1.10;99.90;;;;;;10349896;28;20103;-66
2022/01/08 06:00:03;;;;;;;0.28;0.10;;;1.10;99.90;;;;;;10349140;28;20519;-66
2022/01/08 06:05:06;;;;;;;0.30;0.20;;;1.10;99.90;;;;;;10342296;28;20046;-66
2022/01/08 06:10:08;;;;;;;0.52;0.25;;;1.10;99.90;;;;;;10344130;28;20137;-67
2022/01/08 06:15:10;;;;;;;0.13;0.10;;;1.10;99.90;;;;;;10342727;28;20053;-67
2022/01/08 06:20:11;;;;;;;0.85;0.38;;;1.10;99.90;;;;;;10342213;28;20124;-67
2022/01/08 06:25:13;;;;;;;5.40;0.60;;;1.20;99.90;;;;;;10344782;28;20108;-69
2022/01/08 06:30:15;;;;;;;1.98;0.82;;;1.20;99.90;;;;;;10349103;28;20057;-69
2022/01/08 06:35:16;;;;;;;3.75;0.93;;;1.30;99.90;;;;;;10337260;28;20128;-69
2022/01/08 06:40:18;;;;;;;3.03;1.10;;;1.20;99.90;;;;;;10342932;28;20046;-69
2022/01/08 06:45:20;;;;;;;2.53;0.90;;;1.20;99.90;;;;;;10341901;28;20069;-68
2022/01/08 06:50:21;;;;;;;4.47;1.58;;;1.10;99.90;;;;;;10358488;28;20077;-68
2022/01/08 06:55:24;;;;;;;3.72;1.10;;;1.00;99.90;;;;;;10338537;28;20126;-68
2022/01/08 07:00:25;;;;;;;3.45;0.80;;;0.90;99.90;;;;;;10346849;28;20815;-68
2022/01/08 07:05:31;;;;;;;2.65;0.85;;;0.70;99.90;;;;;;10348670;28;20053;-67
2022/01/08 07:10:33;;;;;;;1.60;0.77;;;0.60;99.90;;;;;;10341623;28;20053;-66
2022/01/08 07:15:35;;;;;;;3.72;0.75;;;0.50;99.90;;;;;;10345832;28;20127;-67
2022/01/08 07:20:37;;;;;;;3.53;1.10;;;0.50;99.90;;;;;;10343558;28;20501;-67
2022/01/08 07:25:38;;;;;;;5.18;1.10;;;0.40;99.90;;;;;;10343815;28;20046;-67
2022/01/08 07:30:40;;;;;;;6.13;2.03;;;0.40;99.90;;;;;;10338494;28;20078;-66
2022/01/08 07:35:42;;;;;;;6.53;1.40;;;0.40;99.90;;;;;;10337058;28;20069;-66
2022/01/08 07:40:43;;;;;;;11.68;5.57;;;0.40;99.90;;;;;;10339202;28;20085;-67
2022/01/08 07:45:45;;;;;;;9.57;3.53;;;0.40;99.90;;;;;;10342004;28;20120;-67
2022/01/08 07:50:47;;;;;;;11.13;2.35;;;0.40;99.90;;;;;;10340237;28;21058;-67
2022/01/08 07:55:49;;;;;;;7.13;2.65;;;0.30;99.90;;;;;;10337324;28;20071;-67
2022/01/08 08:00:51;;;;;;;9.77;3.30;;;0.40;99.90;;;;;;10343405;28;20054;-67
2022/01/08 08:05:53;;;;;;;11.80;3.13;;;0.50;99.90;;;;;;10337633;28;20050;-67
2022/01/08 08:10:55;;;;;;;10.40;3.63;;;0.70;99.90;;;;;;10339213;28;20099;-67
2022/01/08 08:15:56;;;;;;;17.33;4.22;;;0.80;99.90;;;;;;10336518;28;20501;-67
2022/01/08 08:20:58;;;;;;;16.55;3.88;;;1.10;99.90;;;;;;10335290;28;20085;-68
2022/01/08 08:26:00;;;;;;;13.45;4.80;;;1.20;99.90;;;;;;10335758;28;20389;-68
2022/01/08 08:31:02;;;;;;;19.33;4.40;;;1.40;99.90;;;;;;10340710;28;20077;-68
2022/01/08 08:36:04;;;;;;;16.05;4.93;;;1.50;99.90;;;;;;10345725;28;20131;-68
2022/01/08 08:41:06;;;;;;;16.20;5.13;;;1.60;99.90;;;;;;10342901;28;20378;-67
2022/01/08 08:46:07;;;;;;;16.88;5.10;;;1.70;99.90;;;;;;10343403;28;20085;-66
2022/01/08 08:51:09;;;;;;;14.20;3.85;;;1.70;99.90;;;;;;10345331;28;20133;-66
2022/01/08 08:56:11;;;;;;;24.00;4.72;;;1.80;99.90;;;;;;10342855;28;20614;-66
2022/01/08 09:01:13;;;;;;;15.98;4.88;;;1.70;99.90;;;;;;10347955;28;20046;-67
2022/01/08 09:06:14;;;;;;;16.98;4.82;;;1.70;99.90;;;;;;10346585;28;20042;-66
2022/01/08 09:11:19;;;;;;;13.32;4.47;;;1.80;99.90;;;;;;10348478;28;20380;-66
2022/01/08 09:16:21;;;;;;;13.57;4.30;;;1.80;99.90;;;;;;10345347;28;20104;-66
2022/01/08 09:21:23;;;;;;;15.25;5.30;;;1.80;99.90;;;;;;10340050;28;20145;-66
2022/01/08 09:26:25;;;;;;;14.20;4.07;;;1.80;99.90;;;;;;10349385;28;20497;-66
2022/01/08 09:31:26;;;;;;;17.13;5.10;;;1.90;99.90;;;;;;10342665;28;20245;-66
2022/01/08 09:36:28;;;;;;;12.80;4.32;;;1.90;99.90;;;;;;10348113;28;20882;-66
2022/01/08 09:41:30;;;;;;;13.38;4.25;;;1.90;99.90;;;;;;10336342;28;20451;-66
2022/01/08 09:46:32;;;;;;;14.77;3.35;;;1.90;99.90;;;;;;10347879;28;20128;-65
2022/01/08 09:51:34;;;;;;;14.25;4.15;;;2.00;99.90;;;;;;10343135;28;20041;-65
2022/01/08 09:56:35;;;;;;;12.02;3.35;;;2.10;99.90;;;;;;10340784;28;20070;-64
2022/01/08 10:01:37;;;;;;;12.02;3.00;;;2.20;99.90;;;;;;10340525;28;20145;-64
2022/01/08 10:06:39;;;;;;;8.88;2.63;;;2.20;99.90;;;;;;10345004;28;20408;-65
2022/01/08 10:11:49;;;;;;;7.38;2.22;;;2.20;99.90;;;;;;10328445;28;20053;-64
2022/01/08 10:22:16;;;;;;;7.78;2.05;;;2.20;99.90;;;;;;10343717;28;20506;-64
2022/01/08 10:27:18;;;;;;;6.22;2.42;;;2.30;99.90;;;;;;10343317;28;20056;-64
2022/01/08 10:32:27;;;;;;;10.70;2.03;;;2.30;99.90;;;;;;10339039;28;20582;-63
2022/01/08 10:37:28;;;;;;;10.00;2.78;;;2.40;99.90;;;;;;10346987;28;20054;-62
2022/01/08 10:42:38;;;;;;;8.10;1.55;;;2.40;99.90;;;;;;10343252;28;20049;-62
2022/01/08 10:47:40;;;;;;;17.98;1.80;;;2.30;99.90;;;;;;10346053;28;20081;-62
2022/01/08 10:52:46;;;;;;;11.15;2.38;;;2.20;99.90;;;;;;10341872;28;20050;-62
2022/01/08 10:57:48;;;;;;;9.98;1.90;;;2.20;99.90;;;;;;10339950;28;20050;-62
2022/01/08 11:02:50;;;;;;;10.52;2.20;;;2.30;99.90;;;;;;10340679;28;20135;-61
2022/01/08 11:07:52;;;;;;;6.32;2.53;;;2.50;99.90;;;;;;10344351;28;20073;-61
2022/01/08 11:12:54;;;;;;;7.75;2.35;;;2.50;99.90;;;;;;10342433;28;20637;-60
2022/01/08 11:18:00;;;;;;;5.45;2.00;;;2.60;99.90;;;;;;10338281;28;20421;-61
2022/01/08 11:23:23;;;;;;;5.57;1.58;;;2.60;99.90;;;;;;10345982;28;20136;-60
2022/01/08 11:28:34;;;;;;;6.85;1.75;;;2.50;99.90;;;;;;10343908;28;20088;-67
2022/01/08 11:33:37;;;;;;;5.50;1.80;;;2.50;99.90;;;;;;10339350;28;20041;-67
2022/01/08 11:38:43;;;;;;;8.20;2.03;;;2.60;99.90;;;;;;10337504;28;20052;-69
2022/01/08 11:43:48;;;;;;;7.20;2.10;;;2.80;99.90;;;;;;10338197;28;20552;-69
2022/01/08 11:48:54;;;;;;;11.57;2.38;;;3.10;99.90;;;;;;10347114;28;20053;-66
2022/01/08 11:53:59;;;;;;;6.10;1.73;;;3.10;99.90;;;;;;10332680;28;20049;-61
2022/01/08 11:59:04;;;;;;;11.05;2.47;;;3.10;99.90;;;;;;10346321;28;20136;-60
2022/01/08 12:04:06;;;;;;;5.97;1.92;;;3.10;99.90;;;;;;10333900;28;20046;-60
2022/01/08 12:09:16;;;;;;;5.90;1.83;;;2.90;99.90;;;;;;10348933;28;20355;-60
2022/01/08 12:14:27;;;;;;;7.72;1.67;;;2.80;99.90;;;;;;10351011;28;20496;-60
2022/01/08 12:19:35;;;;;;;7.22;1.45;;;2.80;99.90;;;;;;10348677;28;20088;-61
2022/01/08 12:24:37;;;;;;;11.00;1.73;;;2.70;99.90;;;;;;10350999;28;20146;-60
2022/01/08 12:29:42;;;;;;;5.05;1.63;;;2.70;99.90;;;;;;10342277;28;20566;-60
2022/01/08 12:34:51;;;;;;;5.55;1.17;;;2.70;99.90;;;;;;10346571;28;20042;-60
2022/01/08 12:39:54;;;;;;;5.57;1.40;;;2.80;99.90;;;;;;10345641;28;20104;-59
2022/01/08 12:45:19;;;;;;;5.45;1.33;;;2.80;99.90;;;;;;10345157;28;20528;-60
2022/01/08 12:50:28;;;;;;;6.40;1.80;;;2.90;99.90;;;;;;10344055;28;20127;-60
2022/01/08 12:55:36;;;;;;;7.38;1.77;;;3.00;99.90;;;;;;10344554;28;20098;-60
2022/01/08 13:00:51;;;;;;;5.78;1.58;;;3.20;99.90;;;;;;10343234;28;20520;-59
2022/01/08 13:05:53;;;;;;;13.55;1.70;;;3.30;99.90;;;;;;10348589;28;20125;-61
2022/01/08 13:11:00;;;;;;;8.98;1.70;;;3.60;99.90;;;;;;10344167;28;20077;-60
2022/01/08 13:16:13;;;;;;;4.13;1.48;;;3.50;99.90;;;;;;10349216;28;20086;-60
2022/01/08 13:21:20;;;;;;;7.10;2.72;;;3.30;99.90;;;;;;10341709;28;20069;-60
2022/01/08 13:26:36;;;;;;;5.43;1.55;;;3.30;99.90;;;;;;10345001;28;20070;-61
2022/01/08 13:31:49;;;;;;;10.73;2.78;;;3.30;99.90;;;;;;10347475;28;20069;-60
2022/01/08 13:36:51;;;;;;;19.58;4.20;;;3.30;99.90;;;;;;10347235;28;20050;-60
2022/01/08 13:42:16;;;;;;;7.60;1.40;;;3.20;99.90;;;;;;10345497;28;20197;-61
2022/01/08 13:47:39;;;;;;;3.90;0.95;;;3.20;99.90;;;;;;10347673;28;20046;-60
2022/01/08 13:52:45;;;;;;;7.65;1.02;;;3.10;99.90;;;;;;10342462;28;20618;-61
2022/01/08 13:57:53;;;;;;;4.03;0.90;;;3.00;99.90;;;;;;10346619;28;20034;-60
2022/01/08 14:02:56;;;;;;;5.20;1.05;;;3.00;99.90;;;;;;10342516;28;20049;-61
2022/01/08 14:08:06;;;;;;;2.13;0.85;;;2.90;99.90;;;;;;10348461;28;20132;-61
2022/01/08 14:13:16;;;;;;;3.20;0.68;;;2.90;99.90;;;;;;10339796;28;20169;-61
2022/01/08 14:18:27;;;;;;;5.97;0.70;;;2.90;99.90;;;;;;10347328;28;20542;-61
2022/01/08 14:23:30;;;;;;;4.07;0.82;;;2.90;99.90;;;;;;10345215;28;20105;-62
2022/01/08 14:28:31;;;;;;;4.90;0.85;;;2.90;99.90;;;;;;10340581;28;20112;-62
2022/01/08 14:33:33;;;;;;;3.90;0.70;;;2.80;99.90;;;;;;10342024;28;20104;-62
2022/01/08 14:38:53;;;;;;;1.13;0.63;;;2.90;99.90;;;;;;10343402;28;20123;-62
2022/01/08 14:44:03;;;;;;;3.17;0.93;;;2.90;99.90;;;;;;10343887;28;20536;-62
2022/01/08 14:49:05;;;;;;;3.90;0.98;;;2.80;99.90;;;;;;10340353;28;20050;-62
2022/01/08 14:54:08;;;;;;;6.20;0.98;;;2.80;99.90;;;;;;10339612;28;20091;-62
2022/01/08 14:59:11;;;;;;;3.17;0.93;;;2.80;99.90;;;;;;10341798;28;20452;-63
2022/01/08 15:04:12;;;;;;;3.47;0.70;;;2.80;99.90;;;;;;10342836;28;20125;-63
2022/01/08 15:09:14;;;;;;;4.45;0.60;;;2.80;99.90;;;;;;10342469;28;20133;-64
2022/01/08 15:14:16;;;;;;;2.30;0.55;;;2.80;99.90;;;;;;10342433;28;20069;-64
2022/01/08 15:19:18;;;;;;;1.35;0.70;;;2.70;99.90;;;;;;10334916;28;20069;-63
2022/01/08 15:24:20;;;;;;;2.95;0.63;;;2.80;99.90;;;;;;10343012;28;20115;-63
2022/01/08 15:29:21;;;;;;;2.25;1.00;;;2.70;99.90;;;;;;10341514;28;20064;-64
2022/01/08 15:34:24;;;;;;;4.22;0.68;;;2.80;99.90;;;;;;10349895;28;21171;-64
2022/01/08 15:39:25;;;;;;;1.60;0.50;;;2.70;99.90;;;;;;10338836;28;20452;-64
2022/01/08 15:44:27;;;;;;;4.07;0.60;;;2.70;99.90;;;;;;10345112;28;20081;-64
2022/01/08 15:49:30;;;;;;;2.10;0.65;;;2.70;99.90;;;;;;10342769;28;20050;-64
2022/01/08 15:54:32;;;;;;;3.60;0.60;;;2.60;99.90;;;;;;10343861;28;20054;-64
2022/01/08 15:59:36;;;;;;;4.60;0.88;;;2.50;99.90;;;;;;10337282;28;20057;-64
2022/01/08 16:04:37;;;;;;;4.47;0.68;;;2.40;99.90;;;;;;10339821;28;20441;-65
2022/01/08 16:09:40;;;;;;;2.88;0.60;;;2.40;99.90;;;;;;10341297;28;20060;-61
2022/01/08 16:14:42;;;;;;;2.40;1.13;;;2.30;99.90;;;;;;10347307;28;20054;-61
2022/01/08 16:19:44;;;;;;;5.95;0.85;;;2.20;99.90;;;;;;10341998;28;20050;-60
2022/01/08 16:24:46;;;;;;;5.15;0.55;;;2.20;99.90;;;;;;10340615;28;20105;-61
2022/01/08 16:29:48;;;;;;;3.42;0.93;;;2.10;99.90;;;;;;10339599;28;20046;-61
2022/01/08 16:34:50;;;;;;;2.55;0.70;;;2.10;99.90;;;;;;10341917;28;20131;-61
2022/01/08 16:39:51;;;;;;;2.70;0.63;;;2.10;99.90;;;;;;10341354;28;20100;-61
2022/01/08 16:44:53;;;;;;;2.45;0.65;;;2.00;99.90;;;;;;10346090;28;20111;-62
2022/01/08 16:49:55;;;;;;;1.75;0.63;;;2.00;99.90;;;;;;10333915;28;20069;-61
2022/01/08 16:54:57;;;;;;;3.47;1.08;;;2.00;99.90;;;;;;10344513;28;20084;-61
2022/01/08 16:59:59;;;;;;;3.97;0.98;;;2.00;99.90;;;;;;10354014;28;20050;-61
2022/01/08 17:05:00;;;;;;;3.70;0.80;;;2.00;99.90;;;;;;10345105;28;20041;-61
2022/01/08 17:10:03;;;;;;;4.65;1.15;;;2.10;99.90;;;;;;10351055;28;20116;-61
2022/01/08 17:15:07;;;;;;;5.72;1.50;;;2.10;99.90;;;;;;10345941;28;20049;-61
2022/01/08 17:20:09;;;;;;;7.90;1.88;;;2.10;99.90;;;;;;10346791;28;20045;-61
2022/01/08 17:25:11;;;;;;;5.00;1.08;;;2.20;99.90;;;;;;10349049;28;20050;-62
2022/01/08 17:30:13;;;;;;;2.30;1.02;;;2.20;99.90;;;;;;10346397;28;20156;-62
2022/01/08 17:35:16;;;;;;;2.22;0.98;;;2.20;99.90;;;;;;10350572;28;20104;-62
2022/01/08 17:40:17;;;;;;;9.40;1.10;;;2.30;99.90;;;;;;10348490;28;20323;-62
2022/01/08 17:45:20;;;;;;;4.05;1.20;;;2.30;99.90;;;;;;10344003;28;20073;-61
2022/01/08 17:50:22;;;;;;;3.83;1.40;;;2.30;99.90;;;;;;10341337;28;20111;-61
2022/01/08 17:55:25;;;;;;;4.63;1.48;;;2.30;99.90;;;;;;10342633;28;20073;-61
2022/01/08 18:00:28;;;;;;;4.55;0.93;;;2.30;99.90;;;;;;10345041;28;20038;-60
2022/01/08 18:05:30;;;;;;;6.10;0.90;;;2.20;99.90;;;;;;10343125;28;20046;-61
2022/01/08 18:10:32;;;;;;;4.63;1.75;;;2.20;99.90;;;;;;10346843;28;20116;-61
2022/01/08 18:15:33;;;;;;;7.75;1.90;;;2.20;99.90;;;;;;10346884;28;20157;-61
2022/01/08 18:20:35;;;;;;;6.10;1.23;;;2.20;99.90;;;;;;10347919;28;20123;-61
2022/01/08 18:25:38;;;;;;;3.10;1.33;;;2.20;99.90;;;;;;10342630;28;20143;-61
2022/01/08 18:30:39;;;;;;;3.55;1.48;;;2.20;99.90;;;;;;10345948;28;20057;-62
2022/01/08 18:35:41;;;;;;;4.95;1.75;;;2.20;99.90;;;;;;10339984;28;20093;-61
2022/01/08 18:40:43;;;;;;;5.28;2.22;;;2.20;99.90;;;;;;10342237;28;20104;-63
2022/01/08 18:45:46;;;;;;;4.38;2.15;;;2.20;99.90;;;;;;10342121;28;20120;-61
2022/01/08 18:50:47;;;;;;;6.85;2.28;;;2.20;99.90;;;;;;10347180;28;20096;-61
2022/01/08 18:55:49;;;;;;;3.60;1.25;;;2.10;99.90;;;;;;10345738;28;20045;-61
2022/01/08 19:00:51;;;;;;;2.88;1.15;;;2.10;99.90;;;;;;10345975;28;20073;-62
2022/01/08 19:05:53;;;;;;;2.15;0.93;;;2.20;99.90;;;;;;10344130;28;20393;-61
2022/01/08 19:10:55;;;;;;;2.90;0.60;;;2.20;99.90;;;;;;10339269;28;20511;-62
2022/01/08 19:15:57;;;;;;;2.85;0.90;;;2.30;99.90;;;;;;10338646;28;20069;-61
2022/01/08 19:20:58;;;;;;;2.47;0.77;;;2.30;99.90;;;;;;10343717;28;20077;-61
2022/01/08 19:26:02;;;;;;;2.35;1.10;;;2.30;99.90;;;;;;10335032;28;20103;-62
2022/01/08 19:31:04;;;;;;;2.60;1.20;;;2.30;99.90;;;;;;10349942;28;20131;-63
2022/01/08 19:36:06;;;;;;;6.30;0.98;;;2.30;99.90;;;;;;10342804;28;20139;-63
2022/01/08 19:41:12;;;;;;;3.08;0.93;;;2.30;99.90;;;;;;10340080;28;20052;-62
2022/01/08 19:46:14;;;;;;;1.40;0.60;;;2.40;99.90;;;;;;10340516;28;20073;-63
2022/01/08 19:51:16;;;;;;;2.75;0.70;;;2.40;99.90;;;;;;10339461;28;20378;-63
2022/01/08 19:56:18;;;;;;;3.08;0.80;;;2.40;99.90;;;;;;10342647;28;20116;-62
2022/01/08 20:01:20;;;;;;;5.10;1.17;;;2.50;99.90;;;;;;10337780;28;20053;-63
2022/01/08 20:06:23;;;;;;;4.10;1.63;;;2.50;99.90;;;;;;10340800;28;20052;-63
2022/01/08 20:11:25;;;;;;;3.90;1.58;;;2.40;99.90;;;;;;10339768;28;20411;-64
2022/01/08 20:16:26;;;;;;;4.75;1.70;;;2.30;99.90;;;;;;10342222;28;20136;-63
2022/01/08 20:21:29;;;;;;;2.10;1.20;;;2.30;99.90;;;;;;10342662;28;20138;-63
2022/01/08 20:26:31;;;;;;;3.53;1.13;;;2.30;99.90;;;;;;10343227;28;20069;-63
2022/01/08 20:31:32;;;;;;;1.60;0.90;;;2.40;99.90;;;;;;10352730;28;20113;-65
2022/01/08 20:36:34;;;;;;;3.50;1.45;;;2.30;99.90;;;;;;10355994;28;20072;-63
2022/01/08 20:41:36;;;;;;;3.35;1.00;;;2.30;99.90;;;;;;10351911;28;20046;-62
2022/01/08 20:46:37;;;;;;;2.22;0.80;;;2.40;99.90;;;;;;10358992;28;20489;-63
2022/01/08 20:51:39;;;;;;;2.20;0.68;;;2.30;99.90;;;;;;10352560;28;20054;-63
2022/01/08 20:56:41;;;;;;;4.97;1.30;;;2.30;99.90;;;;;;10351877;28;20548;-63
2022/01/08 21:01:42;;;;;;;8.57;1.67;;;2.30;99.90;;;;;;10344237;28;20050;-63
2022/01/08 21:06:44;;;;;;;6.50;1.40;;;2.30;99.90;;;;;;10350571;28;20073;-63
2022/01/08 21:11:46;;;;;;;2.70;0.93;;;2.30;99.90;;;;;;10351503;28;20135;-63
2022/01/08 21:16:48;;;;;;;3.95;1.20;;;2.30;99.90;;;;;;10364410;28;20053;-61
2022/01/08 21:21:50;;;;;;;6.15;2.83;;;2.30;99.90;;;;;;10348304;28;20050;-61
2022/01/08 21:26:51;;;;;;;5.43;1.67;;;2.20;99.90;;;;;;10346096;28;20076;-62
2022/01/08 21:31:56;;;;;;;3.10;1.40;;;2.30;99.90;;;;;;10342293;28;20672;-62
2022/01/08 21:36:59;;;;;;;3.28;1.05;;;2.20;99.90;;;;;;10346818;28;20058;-62
2022/01/08 21:42:00;;;;;;;4.07;1.00;;;2.20;99.90;;;;;;10342126;28;20124;-62
2022/01/08 21:47:05;;;;;;;1.33;0.80;;;2.20;99.90;;;;;;10345321;28;20077;-63
2022/01/08 21:52:07;;;;;;;2.80;1.20;;;2.30;99.90;;;;;;10340833;28;20033;-64
2022/01/08 21:57:08;;;;;;;2.53;0.90;;;2.20;99.90;;;;;;10343015;28;20073;-63
2022/01/08 22:02:10;;;;;;;2.35;0.77;;;2.30;99.90;;;;;;10343768;28;20069;-63
2022/01/08 22:07:12;;;;;;;4.55;1.05;;;2.30;99.90;;;;;;10349051;28;20073;-64
2022/01/08 22:12:17;;;;;;;6.63;1.40;;;2.30;99.90;;;;;;10344074;28;20054;-64
2022/01/08 22:17:19;;;;;;;2.15;1.02;;;2.30;99.90;;;;;;10345000;28;20049;-63
2022/01/08 22:22:21;;;;;;;5.82;0.88;;;2.20;99.90;;;;;;10339923;28;20038;-64
2022/01/08 22:27:22;;;;;;;4.05;0.73;;;2.20;99.90;;;;;;10342386;28;20053;-63
2022/01/08 22:32:24;;;;;;;2.00;0.88;;;2.20;99.90;;;;;;10338155;28;20076;-64
2022/01/08 22:37:26;;;;;;;1.42;0.70;;;2.20;99.90;;;;;;10343063;28;20046;-63
2022/01/08 22:42:27;;;;;;;1.95;1.13;;;2.10;99.90;;;;;;10336723;28;20136;-63
2022/01/08 22:47:29;;;;;;;3.72;0.82;;;2.20;99.90;;;;;;10345367;28;20127;-63
2022/01/08 22:52:31;;;;;;;6.32;0.90;;;2.20;99.90;;;;;;10341917;28;20508;-63
2022/01/08 22:57:32;;;;;;;2.55;1.05;;;2.20;99.90;;;;;;10341023;28;20112;-63
2022/01/08 23:02:35;;;;;;;2.70;0.73;;;2.30;99.90;;;;;;10338812;28;20058;-63
2022/01/08 23:07:37;;;;;;;2.80;0.90;;;2.20;99.90;;;;;;10342962;28;20050;-64
2022/01/08 23:12:40;;;;;;;2.22;0.68;;;2.30;99.90;;;;;;10338661;28;20054;-64
2022/01/08 23:17:42;;;;;;;2.40;1.10;;;2.30;99.90;;;;;;10341014;28;20484;-64
2022/01/08 23:22:45;;;;;;;1.15;0.50;;;2.10;99.90;;;;;;10343401;28;20045;-63
2022/01/08 23:27:46;;;;;;;4.78;1.50;;;2.20;99.90;;;;;;10342268;28;20504;-63
2022/01/08 23:32:48;;;;;;;1.45;0.50;;;2.20;99.90;;;;;;10341069;28;20109;-63
2022/01/08 23:37:50;;;;;;;3.10;0.80;;;2.20;99.90;;;;;;10346532;28;20050;-63
2022/01/08 23:42:52;;;;;;;3.45;1.10;;;2.10;99.90;;;;;;10345216;28;20047;-63
2022/01/08 23:47:54;;;;;;;5.75;0.90;;;2.20;99.90;;;;;;10342339;28;20107;-63
2022/01/08 23:52:57;;;;;;;1.63;0.77;;;2.20;99.90;;;;;;10337764;28;20061;-63
2022/01/08 23:58:00;;;;;;;4.03;0.88;;;2.20;99.90;;;;;;10338866;28;20058;-64
